Airfield :
LOGIN :

Register | Disclaimer

   EN    FR    IT 

 










Legend :    VFR   Marginal VFR   IFR   Intensive IFR   Very Intensive IFR
Visi :
Ceiling :
>= 8 km
>= 3000ft
5 to 8 km
1000 to 3000 ft
1500m to 5 km
500 to 1000 ft
800 to 1500m
200 to 500 ft
< 800m
< 200 ft
Symbols :   Thunderstorms  Fog  Heavy snow  Heavy precipitations  Wind > 20 kt
SIGMETs :     Misc.  Thunderstorms  Icing  Turbulence  Mountain Waves  Volcanic Ashes






- Airport Elevation : 256 ft
- IATA code : KUN


EYKA - Kaunas

CURRENT METAR :
  • 280420Z 09004KT 9999 OVC046 09/07 Q1027

EXPIRED METARs :
  • 280350Z 09004KT 9999 OVC046 09/07 Q1027
  • 280320Z 09005KT 9999 OVC045 09/07 Q1027
  • 280250Z 09005KT 9999 OVC046 09/07 Q1027
  • 280220Z 09005KT 9999 OVC046 09/07 Q1027
  • 280150Z 09004KT 050V130 9999 OVC046 09/06 Q1027

TAF TAF EYKA
Valid from the 28 at 00:00 until the 29 at 00:00 UTC


272300Z 2800/2824 VRB05KT 9000 BKN040
BECMG 2816/2818 NSC



MET'MAP, your aeronautical weather chart ! - Copyright ORBIFLY December 2007 - Disclaimer

ORBIFLY MET'MAP TEAM :

Programming & Development : Alexandra Zaïnal
Concept & original design : Baudouin d'Aumeries
Assistance for programming : Marc-Olivier Méhu
Technical & hardware support : Manuel Goepfert

Contact : metmap@orbifly.com




SOURCES & CREDITS :

   NOAA